createdAt,value
2018-01-05T00:00:35.272Z,1.50
2018-01-05T00:03:03.065Z,1.50
2018-01-05T00:05:30.820Z,1.50
2018-01-05T00:07:58.561Z,1.50
2018-01-05T00:10:26.300Z,1.60
2018-01-05T00:12:54.062Z,1.60
2018-01-05T00:15:21.744Z,1.60
2018-01-05T00:17:49.440Z,1.60
2018-01-05T00:20:17.135Z,1.70
2018-01-05T00:22:44.882Z,1.70
2018-01-05T00:25:12.582Z,1.80
2018-01-05T00:27:40.309Z,1.90
2018-01-05T00:30:08.104Z,1.90
2018-01-05T00:32:35.821Z,1.90
2018-01-05T00:35:03.486Z,2.00
2018-01-05T00:37:31.186Z,2.00
2018-01-05T00:40:00.537Z,2.10
2018-01-05T00:42:28.360Z,2.10
2018-01-05T00:44:56.088Z,2.10
2018-01-05T00:47:23.776Z,2.10
2018-01-05T00:49:51.478Z,2.10
2018-01-05T00:52:19.266Z,2.10
2018-01-05T00:54:47.081Z,2.20
2018-01-05T00:57:14.782Z,2.20
2018-01-05T00:59:42.545Z,2.10
2018-01-05T01:02:11.026Z,1.90
2018-01-05T01:04:38.840Z,1.90
2018-01-05T01:07:06.539Z,1.90
2018-01-05T01:09:34.244Z,1.90
2018-01-05T01:12:01.944Z,1.90
2018-01-05T01:14:29.624Z,2.00
2018-01-05T01:16:57.322Z,2.00
2018-01-05T01:21:56.887Z,2.00
2018-01-05T01:24:24.601Z,2.00
2018-01-05T01:26:52.379Z,1.90
2018-01-05T01:29:20.080Z,1.90
2018-01-05T01:31:48.571Z,1.70
2018-01-05T01:34:16.279Z,1.60
2018-01-05T01:36:43.966Z,1.60
2018-01-05T01:39:11.651Z,1.60
2018-01-05T01:41:39.325Z,1.60
2018-01-05T01:44:07.082Z,1.60
2018-01-05T01:46:34.759Z,1.60
2018-01-05T01:49:02.480Z,1.60
2018-01-05T01:51:30.941Z,1.50
2018-01-05T01:53:58.642Z,1.50
2018-01-05T01:56:26.321Z,1.50
2018-01-05T01:58:54.045Z,1.50
2018-01-05T02:01:21.715Z,1.50
2018-01-05T02:03:49.423Z,1.50
2018-01-05T02:06:17.120Z,1.50
2018-01-05T02:08:44.869Z,1.50
2018-01-05T02:11:12.541Z,1.50
2018-01-05T02:13:40.327Z,1.50
2018-01-05T02:16:08.847Z,1.50
2018-01-05T02:18:36.523Z,1.50
2018-01-05T02:21:04.283Z,1.50
2018-01-05T02:23:32.013Z,1.50
2018-01-05T02:25:59.763Z,1.50
2018-01-05T02:28:27.462Z,1.60
2018-01-05T02:30:55.163Z,1.60
2018-01-05T02:33:22.822Z,1.60
2018-01-05T02:35:50.549Z,1.60
2018-01-05T02:38:18.243Z,1.60
2018-01-05T02:40:45.924Z,1.60
2018-01-05T02:43:13.623Z,1.60
2018-01-05T02:45:41.326Z,1.60
2018-01-05T02:48:09.032Z,1.60
2018-01-05T02:50:36.762Z,1.50
2018-01-05T02:53:04.423Z,1.60
2018-01-05T02:55:32.123Z,1.60
2018-01-05T02:57:59.884Z,1.70
2018-01-05T03:00:27.578Z,1.70
2018-01-05T03:05:27.103Z,1.80
2018-01-05T03:07:54.840Z,1.80
2018-01-05T03:10:22.623Z,1.80
2018-01-05T03:12:51.103Z,1.70
2018-01-05T03:15:18.869Z,1.70
2018-01-05T03:17:46.642Z,1.70
2018-01-05T03:20:14.309Z,1.70
2018-01-05T03:22:42.063Z,1.70
2018-01-05T03:25:09.803Z,1.60
2018-01-05T03:27:37.543Z,1.40
2018-01-05T03:30:06.171Z,1.20
2018-01-05T03:32:33.902Z,1.10
2018-01-05T03:35:01.570Z,1.10
2018-01-05T03:37:29.270Z,1.10
2018-01-05T03:39:57.083Z,1.10
2018-01-05T03:42:24.790Z,1.00
2018-01-05T03:44:52.499Z,0.80
2018-01-05T03:47:20.223Z,0.70
2018-01-05T03:49:47.966Z,0.60
2018-01-05T03:52:15.677Z,0.50
2018-01-05T03:54:43.400Z,0.50
2018-01-05T03:57:11.062Z,0.50
2018-01-05T03:59:39.509Z,0.50
2018-01-05T04:02:07.185Z,0.50
2018-01-05T04:04:34.864Z,0.40
2018-01-05T04:07:02.614Z,0.10
2018-01-05T04:09:30.316Z,-0.10
2018-01-05T04:11:58.027Z,-0.40
2018-01-05T04:14:25.706Z,-0.60
2018-01-05T04:16:53.387Z,-0.60
2018-01-05T04:19:21.068Z,-0.80
2018-01-05T04:21:48.787Z,-0.90
2018-01-05T04:24:16.526Z,-1.00
2018-01-05T04:26:44.204Z,-0.80
2018-01-05T04:29:11.906Z,-0.50
2018-01-05T04:31:40.445Z,-0.50
2018-01-05T04:36:40.771Z,-0.30
2018-01-05T04:39:08.485Z,-0.10
2018-01-05T04:41:36.264Z,-0.10
2018-01-05T04:44:03.960Z,0.00
2018-01-05T04:46:31.699Z,0.00
2018-01-05T04:48:59.363Z,-0.20
2018-01-05T04:51:27.099Z,-0.40
2018-01-05T04:53:55.581Z,-0.50
2018-01-05T04:56:23.323Z,-0.60
2018-01-05T04:58:51.061Z,-0.60
2018-01-05T05:01:18.820Z,-0.70
2018-01-05T05:03:46.530Z,-1.00
2018-01-05T05:06:14.269Z,-1.20
2018-01-05T05:08:41.985Z,-1.30
2018-01-05T05:11:09.645Z,-1.20
2018-01-05T05:13:37.365Z,-1.20
2018-01-05T05:16:05.064Z,-1.10
2018-01-05T05:18:32.827Z,-1.10
2018-01-05T05:21:01.327Z,-0.90
2018-01-05T05:23:29.044Z,-0.90
2018-01-05T05:25:56.724Z,-0.80
2018-01-05T05:28:24.412Z,-0.80
2018-01-05T05:30:52.064Z,-0.80
2018-01-05T05:33:19.850Z,-0.60
2018-01-05T05:35:47.576Z,-0.50
2018-01-05T05:38:15.300Z,-0.30
2018-01-05T05:40:43.042Z,0.00
2018-01-05T05:43:10.747Z,-0.20
2018-01-05T05:45:38.523Z,-0.10
2018-01-05T05:48:06.264Z,-0.30
2018-01-05T05:50:34.042Z,-0.30
2018-01-05T05:53:01.745Z,-0.10
2018-01-05T05:55:29.422Z,0.10
2018-01-05T05:57:57.121Z,0.20
2018-01-05T06:00:25.629Z,-0.10
2018-01-05T06:02:53.343Z,-0.20
2018-01-05T06:05:21.087Z,-0.20
2018-01-05T06:07:48.840Z,-0.10
2018-01-05T06:10:17.325Z,-0.40
2018-01-05T06:12:45.005Z,-0.40
2018-01-05T06:15:12.706Z,-0.40
2018-01-05T06:17:40.484Z,0.00
2018-01-05T06:20:08.217Z,0.30
2018-01-05T06:22:36.027Z,0.40
2018-01-05T06:25:03.887Z,0.50
2018-01-05T06:27:31.847Z,0.60
2018-01-05T06:29:59.562Z,0.80
2018-01-05T06:32:27.319Z,1.10
2018-01-05T06:34:55.086Z,1.40
2018-01-05T06:37:22.865Z,1.50
2018-01-05T06:39:50.661Z,1.50
2018-01-05T06:42:18.404Z,1.50
2018-01-05T06:44:46.144Z,1.60
2018-01-05T06:47:13.964Z,1.60
2018-01-05T06:49:41.702Z,1.60
2018-01-05T06:52:09.442Z,1.60
2018-01-05T06:54:37.183Z,1.60
2018-01-05T06:57:04.980Z,1.70
2018-01-05T06:59:32.703Z,1.70
2018-01-05T07:02:00.494Z,1.70
2018-01-05T07:04:28.205Z,1.70
2018-01-05T07:06:56.003Z,1.80
2018-01-05T07:09:23.681Z,1.90
2018-01-05T07:11:51.401Z,2.00
2018-01-05T07:14:19.180Z,2.00
2018-01-05T07:16:46.980Z,2.10
2018-01-05T07:19:14.744Z,2.00
2018-01-05T07:21:42.505Z,2.00
2018-01-05T07:24:10.341Z,1.90
2018-01-05T07:26:38.062Z,1.80
2018-01-05T07:29:05.827Z,1.90
2018-01-05T07:31:33.605Z,1.90
2018-01-05T07:34:01.584Z,1.90
2018-01-05T07:36:29.384Z,1.90
2018-01-05T07:38:57.122Z,2.00
2018-01-05T07:41:24.903Z,2.10
2018-01-05T07:43:52.668Z,2.30
2018-01-05T07:46:20.468Z,2.30
2018-01-05T07:48:48.181Z,2.50
2018-01-05T07:51:15.891Z,2.40
2018-01-05T07:53:43.665Z,2.20
2018-01-05T07:58:43.305Z,2.20
2018-01-05T08:01:11.174Z,2.20
2018-01-05T08:03:38.928Z,2.40
2018-01-05T08:06:06.665Z,2.60
2018-01-05T08:08:34.401Z,2.80
2018-01-05T08:11:02.225Z,2.90
2018-01-05T08:13:30.006Z,3.00
2018-01-05T08:15:57.800Z,3.10
2018-01-05T08:18:25.626Z,3.20
2018-01-05T08:20:54.122Z,2.90
2018-01-05T08:23:21.903Z,2.90
2018-01-05T08:25:49.707Z,2.80
2018-01-05T08:28:17.506Z,2.70
2018-01-05T08:30:45.244Z,2.90
2018-01-05T08:33:13.041Z,3.10
2018-01-05T08:35:40.781Z,3.40
2018-01-05T08:38:08.639Z,3.60
2018-01-05T08:40:36.361Z,3.80
2018-01-05T08:43:04.048Z,4.00
2018-01-05T08:45:31.860Z,4.20
2018-01-05T08:47:59.624Z,4.40
2018-01-05T08:50:27.406Z,4.60
2018-01-05T08:52:55.180Z,4.80
2018-01-05T08:55:23.896Z,5.10
2018-01-05T08:57:51.700Z,5.40
2018-01-05T09:00:19.506Z,5.60
2018-01-05T09:02:47.345Z,5.80
2018-01-05T09:05:15.148Z,6.00
2018-01-05T09:07:42.927Z,6.20
2018-01-05T09:10:10.744Z,6.50
2018-01-05T09:12:38.544Z,7.10
2018-01-05T09:15:06.247Z,7.80
2018-01-05T09:17:34.004Z,8.10
2018-01-05T09:20:01.823Z,8.40
2018-01-05T09:22:29.601Z,8.70
2018-01-05T09:24:57.403Z,9.00
2018-01-05T09:27:25.164Z,8.90
2018-01-05T09:29:52.970Z,9.20
2018-01-05T09:32:20.772Z,9.70
2018-01-05T09:34:48.544Z,9.90
2018-01-05T09:37:16.322Z,9.80
2018-01-05T09:39:44.126Z,9.90
2018-01-05T09:42:11.922Z,9.90
2018-01-05T09:44:39.685Z,9.80
2018-01-05T09:47:07.407Z,9.70
2018-01-05T09:49:35.183Z,9.30
2018-01-05T09:52:02.959Z,9.20
2018-01-05T09:54:30.724Z,9.10
2018-01-05T09:56:58.561Z,9.10
2018-01-05T09:59:26.340Z,9.00
2018-01-05T10:01:54.107Z,8.80
2018-01-05T10:04:21.914Z,8.40
2018-01-05T10:06:49.646Z,8.20
2018-01-05T10:09:17.422Z,8.10
2018-01-05T10:11:45.263Z,8.00
2018-01-05T10:14:13.784Z,7.60
2018-01-05T10:16:41.550Z,7.50
2018-01-05T10:19:09.349Z,7.40
2018-01-05T10:21:37.082Z,7.30
2018-01-05T10:24:04.863Z,7.20
2018-01-05T10:26:32.649Z,7.30
2018-01-05T10:29:00.428Z,7.20
2018-01-05T10:31:28.226Z,7.40
2018-01-05T10:33:56.023Z,7.50
2018-01-05T10:36:23.806Z,7.80
2018-01-05T10:38:51.628Z,7.90
2018-01-05T10:41:19.447Z,8.10
2018-01-05T10:43:47.230Z,8.30
2018-01-05T10:46:14.972Z,8.40
2018-01-05T10:48:43.506Z,8.60
2018-01-05T10:51:12.068Z,8.60
2018-01-05T10:53:39.787Z,8.60
2018-01-05T10:56:07.562Z,8.70
2018-01-05T10:58:35.327Z,8.80
2018-01-05T11:01:03.107Z,8.80
2018-01-05T11:03:30.885Z,8.70
2018-01-05T11:05:58.703Z,8.70
2018-01-05T11:08:26.520Z,8.70
2018-01-05T11:10:54.300Z,8.80
2018-01-05T11:15:53.981Z,8.90
2018-01-05T11:18:21.763Z,9.00
2018-01-05T11:20:49.544Z,9.10
2018-01-05T11:23:17.311Z,9.20
2018-01-05T11:25:45.082Z,9.20
2018-01-05T11:28:12.950Z,9.30
2018-01-05T11:30:40.703Z,9.30
2018-01-05T11:33:08.471Z,9.30
2018-01-05T11:35:36.266Z,9.40
2018-01-05T11:38:03.942Z,9.50
2018-01-05T11:40:31.665Z,9.50
2018-01-05T11:43:00.144Z,9.70
2018-01-05T11:45:27.943Z,9.60
2018-01-05T11:47:55.727Z,9.70
2018-01-05T11:50:23.503Z,9.70
2018-01-05T11:52:51.252Z,9.70
2018-01-05T11:55:18.943Z,9.70
2018-01-05T11:57:46.732Z,9.70
2018-01-05T12:00:14.419Z,9.70
2018-01-05T12:02:42.781Z,9.60
2018-01-05T12:05:10.440Z,9.60
2018-01-05T12:07:38.485Z,9.50
2018-01-05T12:10:06.283Z,9.50
2018-01-05T12:12:33.938Z,9.50
2018-01-05T12:15:01.729Z,9.50
2018-01-05T12:17:29.438Z,9.40
2018-01-05T12:19:57.502Z,9.30
2018-01-05T12:22:34.025Z,9.30
2018-01-05T12:25:02.388Z,9.30
2018-01-05T12:27:30.246Z,9.30
2018-01-05T12:29:58.222Z,9.40
2018-01-05T12:32:25.956Z,9.50
2018-01-05T12:34:53.567Z,9.50
2018-01-05T12:37:21.292Z,9.60
2018-01-05T12:39:48.942Z,9.70
2018-01-05T12:42:16.739Z,9.80
2018-01-05T12:44:44.526Z,9.90
2018-01-05T12:47:12.267Z,10.00
2018-01-05T12:49:40.068Z,9.90
2018-01-05T12:52:07.911Z,10.00
2018-01-05T12:54:35.687Z,10.00
2018-01-05T12:57:04.189Z,9.90
2018-01-05T12:59:31.943Z,9.90
2018-01-05T13:01:59.772Z,9.80
2018-01-05T13:04:27.598Z,9.80
2018-01-05T13:06:55.424Z,9.70
2018-01-05T13:09:24.008Z,9.40
2018-01-05T13:11:51.848Z,9.40
2018-01-05T13:14:20.425Z,9.20
2018-01-05T13:16:48.183Z,9.10
2018-01-05T13:19:15.922Z,9.20
2018-01-05T13:21:43.684Z,9.20
2018-01-05T13:24:11.432Z,9.20
2018-01-05T13:26:39.247Z,8.90
2018-01-05T13:29:07.092Z,8.70
2018-01-05T13:31:34.820Z,8.70
2018-01-05T13:34:02.585Z,8.70
2018-01-05T13:36:30.401Z,8.70
2018-01-05T13:38:58.104Z,8.70
2018-01-05T13:41:25.842Z,8.60
2018-01-05T13:43:53.630Z,8.60
2018-01-05T13:46:21.360Z,8.50
2018-01-05T13:48:49.122Z,8.40
2018-01-05T13:51:16.963Z,8.40
2018-01-05T13:53:44.704Z,8.40
2018-01-05T13:56:12.461Z,8.40
2018-01-05T13:58:40.103Z,8.40
2018-01-05T14:01:07.843Z,8.50
2018-01-05T14:03:35.504Z,8.50
2018-01-05T14:06:03.270Z,8.50
2018-01-05T14:08:30.977Z,8.60
2018-01-05T14:10:58.636Z,8.70
2018-01-05T14:13:26.329Z,8.70
2018-01-05T14:15:54.042Z,8.60
2018-01-05T14:18:21.725Z,8.50
2018-01-05T14:20:50.165Z,8.40
2018-01-05T14:23:17.917Z,8.40
2018-01-05T14:25:51.335Z,8.30
2018-01-05T14:28:19.441Z,8.30
2018-01-05T14:30:47.200Z,8.40
2018-01-05T14:33:14.986Z,8.40
2018-01-05T14:35:42.900Z,8.40
2018-01-05T14:38:10.661Z,8.30
2018-01-05T14:40:38.486Z,8.30
2018-01-05T14:43:06.261Z,8.30
2018-01-05T14:45:34.017Z,8.20
2018-01-05T14:48:01.802Z,8.20
2018-01-05T14:50:29.624Z,8.20
2018-01-05T14:52:57.420Z,8.20
2018-01-05T14:55:25.145Z,8.20
2018-01-05T14:57:52.942Z,8.10
2018-01-05T15:00:20.731Z,8.10
2018-01-05T15:02:48.504Z,8.00
2018-01-05T15:05:16.347Z,8.00
2018-01-05T15:07:44.099Z,8.00
2018-01-05T15:10:11.863Z,7.90
2018-01-05T15:12:39.680Z,8.00
2018-01-05T15:15:07.474Z,7.90
2018-01-05T15:17:35.202Z,7.80
2018-01-05T15:20:03.018Z,7.80
2018-01-05T15:22:30.760Z,7.70
2018-01-05T15:24:58.520Z,7.70
2018-01-05T15:27:26.368Z,7.70
2018-01-05T15:29:54.865Z,7.60
2018-01-05T15:32:22.644Z,7.60
2018-01-05T15:34:50.425Z,7.60
2018-01-05T15:37:18.226Z,7.60
2018-01-05T15:39:46.844Z,7.60
2018-01-05T15:42:14.622Z,7.50
2018-01-05T15:44:42.401Z,7.60
2018-01-05T15:47:10.088Z,7.60
2018-01-05T15:49:38.728Z,7.50
2018-01-05T15:52:06.463Z,7.50
2018-01-05T15:54:34.260Z,7.50
2018-01-05T15:57:02.102Z,7.50
2018-01-05T15:59:29.845Z,7.40
2018-01-05T16:01:57.662Z,7.20
2018-01-05T16:04:25.463Z,6.70
2018-01-05T16:06:53.221Z,6.40
2018-01-05T16:09:20.966Z,6.50
2018-01-05T16:11:48.768Z,6.40
2018-01-05T16:14:16.545Z,6.20
2018-01-05T16:16:44.306Z,6.20
2018-01-05T16:19:12.128Z,6.00
2018-01-05T16:21:39.950Z,5.90
2018-01-05T16:24:07.705Z,5.90
2018-01-05T16:26:35.595Z,5.80
2018-01-05T16:29:03.403Z,5.60
2018-01-05T16:31:31.212Z,5.60
2018-01-05T16:33:59.071Z,5.70
2018-01-05T16:36:26.824Z,5.60
2018-01-05T16:38:54.604Z,5.40
2018-01-05T16:41:22.442Z,5.40
2018-01-05T16:43:50.209Z,5.40
2018-01-05T16:46:18.746Z,5.50
2018-01-05T16:48:46.585Z,5.50
2018-01-05T16:51:14.326Z,5.30
2018-01-05T16:53:42.085Z,5.00
2018-01-05T16:56:09.763Z,4.80
2018-01-05T16:58:37.525Z,4.80
2018-01-05T17:01:06.103Z,5.20
2018-01-05T17:03:33.933Z,5.10
2018-01-05T17:06:01.703Z,5.40
2018-01-05T17:08:29.449Z,5.50
2018-01-05T17:10:57.323Z,5.50
2018-01-05T17:13:25.120Z,5.60
2018-01-05T17:15:52.838Z,5.70
2018-01-05T17:18:20.679Z,5.70
2018-01-05T17:20:48.445Z,5.50
2018-01-05T17:23:16.284Z,5.30
2018-01-05T17:25:44.047Z,5.00
2018-01-05T17:28:11.785Z,4.90
2018-01-05T17:30:39.493Z,4.70
2018-01-05T17:33:07.250Z,4.60
2018-01-05T17:35:35.004Z,4.50
2018-01-05T17:38:02.745Z,4.40
2018-01-05T17:40:32.027Z,4.40
2018-01-05T17:43:00.560Z,4.60
2018-01-05T17:45:29.104Z,4.80
2018-01-05T17:47:57.660Z,5.10
2018-01-05T17:50:25.366Z,5.10
2018-01-05T17:52:53.853Z,5.60
2018-01-05T17:55:21.624Z,5.60
2018-01-05T17:57:50.161Z,6.00
2018-01-05T18:00:27.042Z,5.90
2018-01-05T18:02:54.807Z,6.10
2018-01-05T18:05:22.644Z,6.30
2018-01-05T18:07:51.266Z,6.30
2018-01-05T18:10:19.044Z,6.30
2018-01-05T18:12:46.806Z,6.40
2018-01-05T18:15:14.645Z,6.40
2018-01-05T18:17:42.403Z,6.20
2018-01-05T18:20:10.921Z,6.20
2018-01-05T18:22:38.685Z,6.20
2018-01-05T18:25:06.450Z,6.20
2018-01-05T18:27:34.885Z,6.20
2018-01-05T18:30:03.446Z,6.30
2018-01-05T18:32:32.441Z,6.30
2018-01-05T18:35:01.485Z,6.30
2018-01-05T18:37:29.304Z,6.30
2018-01-05T18:39:57.876Z,6.30
2018-01-05T18:42:27.033Z,6.30
2018-01-05T18:44:55.611Z,6.30
2018-01-05T18:47:25.221Z,6.40
2018-01-05T18:49:53.409Z,6.40
2018-01-05T18:52:21.259Z,6.40
2018-01-05T18:54:49.501Z,6.50
2018-01-05T18:57:17.372Z,6.50
2018-01-05T18:59:45.986Z,6.50
2018-01-05T19:02:14.173Z,6.50
2018-01-05T19:04:43.607Z,6.60
2018-01-05T19:07:15.194Z,6.60
2018-01-05T19:09:46.770Z,6.60
2018-01-05T19:12:16.405Z,6.60
2018-01-05T19:14:47.562Z,6.60
2018-01-05T19:17:18.362Z,6.60
2018-01-05T19:19:46.326Z,6.60
2018-01-05T19:22:14.140Z,6.60
2018-01-05T19:24:41.922Z,6.70
2018-01-05T19:27:09.656Z,6.70
2018-01-05T19:29:37.710Z,6.80
2018-01-05T19:32:06.477Z,6.80
2018-01-05T19:34:34.335Z,6.80
2018-01-05T19:37:02.262Z,6.80
2018-01-05T19:39:30.087Z,6.90
2018-01-05T19:41:57.860Z,6.90
2018-01-05T19:44:25.680Z,6.80
2018-01-05T19:46:53.522Z,6.80
2018-01-05T19:49:22.141Z,6.80
2018-01-05T19:51:49.923Z,6.80
2018-01-05T19:54:18.205Z,6.90
2018-01-05T19:56:46.620Z,6.90
2018-01-05T19:59:15.369Z,6.90
2018-01-05T20:01:44.123Z,7.00
2018-01-05T20:04:13.288Z,7.00
2018-01-05T20:06:50.540Z,7.00
2018-01-05T20:09:20.888Z,7.00
2018-01-05T20:11:51.026Z,7.10
2018-01-05T20:14:19.083Z,7.10
2018-01-05T20:16:47.896Z,7.10
2018-01-05T20:19:15.904Z,7.10
2018-01-05T20:21:44.644Z,7.10
2018-01-05T20:24:21.887Z,7.10
2018-01-05T20:26:49.614Z,7.10
2018-01-05T20:29:17.521Z,7.10
2018-01-05T20:31:45.339Z,7.10
2018-01-05T20:34:18.140Z,7.10
2018-01-05T20:36:54.378Z,7.00
2018-01-05T20:39:27.289Z,7.00
2018-01-05T20:41:56.052Z,7.00
2018-01-05T20:44:23.981Z,7.00
2018-01-05T20:46:52.180Z,7.00
2018-01-05T20:49:20.003Z,6.90
2018-01-05T20:51:53.325Z,6.90
2018-01-05T20:54:21.147Z,6.80
2018-01-05T20:56:49.603Z,6.60
2018-01-05T20:59:18.402Z,6.50
2018-01-05T21:01:49.385Z,6.40
2018-01-05T21:04:23.560Z,6.40
2018-01-05T21:07:02.415Z,6.40
2018-01-05T21:09:32.344Z,6.40
2018-01-05T21:12:03.666Z,6.30
2018-01-05T21:14:32.442Z,6.30
2018-01-05T21:17:00.241Z,6.40
2018-01-05T21:19:28.005Z,6.40
2018-01-05T21:21:55.742Z,6.40
2018-01-05T21:24:23.503Z,6.30
2018-01-05T21:26:51.267Z,6.30
2018-01-05T21:29:19.026Z,6.30
2018-01-05T21:31:46.783Z,6.30
2018-01-05T21:34:14.614Z,6.20
2018-01-05T21:36:42.384Z,6.10
2018-01-05T21:39:10.126Z,6.00
2018-01-05T21:41:37.895Z,5.90
2018-01-05T21:44:05.609Z,5.90
2018-01-05T21:46:33.358Z,5.80
2018-01-05T21:49:01.173Z,5.80
2018-01-05T21:51:29.257Z,5.80
2018-01-05T21:53:57.281Z,5.70
2018-01-05T21:56:26.938Z,5.50
2018-01-05T21:58:54.679Z,5.50
2018-01-05T22:01:22.448Z,5.40
2018-01-05T22:03:50.205Z,5.40
2018-01-05T22:06:18.704Z,5.40
2018-01-05T22:08:46.829Z,5.40
2018-01-05T22:11:15.473Z,5.40
2018-01-05T22:13:44.016Z,5.30
2018-01-05T22:16:11.791Z,5.20
2018-01-05T22:18:39.622Z,5.10
2018-01-05T22:21:07.365Z,5.00
2018-01-05T22:23:35.042Z,4.90
2018-01-05T22:26:02.825Z,4.90
2018-01-05T22:28:30.533Z,4.90
2018-01-05T22:30:58.263Z,4.90
2018-01-05T22:33:26.083Z,5.00
2018-01-05T22:35:53.761Z,5.00
2018-01-05T22:38:21.436Z,5.00
2018-01-05T22:40:49.244Z,5.00
2018-01-05T22:43:16.985Z,4.90
2018-01-05T22:45:45.485Z,4.70
2018-01-05T22:48:13.245Z,4.70
2018-01-05T22:50:40.920Z,4.70
2018-01-05T22:53:08.715Z,4.60
2018-01-05T22:55:36.463Z,4.60
2018-01-05T22:58:04.224Z,4.60
2018-01-05T23:00:32.613Z,4.60
2018-01-05T23:03:01.362Z,4.50
2018-01-05T23:05:29.841Z,4.50
2018-01-05T23:07:57.561Z,4.50
2018-01-05T23:10:25.270Z,4.50
2018-01-05T23:12:53.030Z,4.60
2018-01-05T23:17:52.611Z,4.50
2018-01-05T23:20:20.400Z,4.40
2018-01-05T23:22:48.064Z,4.40
2018-01-05T23:25:15.817Z,4.40
2018-01-05T23:27:43.544Z,4.50
2018-01-05T23:30:11.241Z,4.60
2018-01-05T23:32:39.166Z,4.60
2018-01-05T23:35:06.875Z,4.70
2018-01-05T23:37:34.548Z,4.70
2018-01-05T23:40:02.375Z,4.70
2018-01-05T23:42:30.148Z,4.70
2018-01-05T23:44:57.924Z,4.70
2018-01-05T23:47:25.741Z,4.70
2018-01-05T23:49:53.503Z,4.70
2018-01-05T23:52:21.264Z,4.70
2018-01-05T23:54:49.152Z,4.70
2018-01-05T23:57:16.825Z,4.70
2018-01-05T23:59:44.503Z,4.70
